sensor_id;sensor_type;location;lat;lon;timestamp;temperature;humidity
20735;DHT22;10528;52.124;5.196;2022-08-21T00:01:50;15.70;99.90
20735;DHT22;10528;52.124;5.196;2022-08-21T00:04:18;15.70;99.90
20735;DHT22;10528;52.124;5.196;2022-08-21T00:06:49;15.70;99.90
20735;DHT22;10528;52.124;5.196;2022-08-21T00:09:17;15.60;99.90
20735;DHT22;10528;52.124;5.196;2022-08-21T00:11:46;15.60;99.90
20735;DHT22;10528;52.124;5.196;2022-08-21T00:14:14;15.60;99.90
20735;DHT22;10528;52.124;5.196;2022-08-21T00:16:42;15.60;99.90
20735;DHT22;10528;52.124;5.196;2022-08-21T00:19:09;15.60;99.90
20735;DHT22;10528;52.124;5.196;2022-08-21T00:21:35;15.60;99.90
20735;DHT22;10528;52.124;5.196;2022-08-21T00:24:03;15.60;99.90
20735;DHT22;10528;52.124;5.196;2022-08-21T00:26:31;15.60;99.90
20735;DHT22;10528;52.124;5.196;2022-08-21T00:28:58;15.50;99.90
20735;DHT22;10528;52.124;5.196;2022-08-21T00:31:26;15.50;99.90
20735;DHT22;10528;52.124;5.196;2022-08-21T00:33:52;15.50;99.90
20735;DHT22;10528;52.124;5.196;2022-08-21T00:36:26;15.40;99.90
20735;DHT22;10528;52.124;5.196;2022-08-21T00:38:53;15.50;99.90
20735;DHT22;10528;52.124;5.196;2022-08-21T00:41:20;15.40;99.90
20735;DHT22;10528;52.124;5.196;2022-08-21T00:44:07;15.40;99.90
20735;DHT22;10528;52.124;5.196;2022-08-21T00:46:37;15.40;99.90
20735;DHT22;10528;52.124;5.196;2022-08-21T00:49:06;15.40;99.90
20735;DHT22;10528;52.124;5.196;2022-08-21T00:54:15;15.40;99.90
20735;DHT22;10528;52.124;5.196;2022-08-21T00:56:46;15.40;99.90
20735;DHT22;10528;52.124;5.196;2022-08-21T00:59:18;15.30;99.90
20735;DHT22;10528;52.124;5.196;2022-08-21T01:01:47;15.30;99.90
20735;DHT22;10528;52.124;5.196;2022-08-21T01:04:14;15.30;99.90
20735;DHT22;10528;52.124;5.196;2022-08-21T01:06:43;15.20;99.90
20735;DHT22;10528;52.124;5.196;2022-08-21T01:09:11;15.30;99.90
20735;DHT22;10528;52.124;5.196;2022-08-21T01:11:39;15.30;99.90
20735;DHT22;10528;52.124;5.196;2022-08-21T01:14:09;15.20;99.90
20735;DHT22;10528;52.124;5.196;2022-08-21T01:16:41;15.20;99.90
20735;DHT22;10528;52.124;5.196;2022-08-21T01:19:12;15.20;99.90
20735;DHT22;10528;52.124;5.196;2022-08-21T01:21:40;15.20;99.90
20735;DHT22;10528;52.124;5.196;2022-08-21T01:24:10;15.20;99.90
20735;DHT22;10528;52.124;5.196;2022-08-21T01:26:37;15.20;99.90
20735;DHT22;10528;52.124;5.196;2022-08-21T01:29:38;15.20;99.90
20735;DHT22;10528;52.124;5.196;2022-08-21T01:32:15;15.20;99.90
20735;DHT22;10528;52.124;5.196;2022-08-21T01:34:47;15.20;99.90
20735;DHT22;10528;52.124;5.196;2022-08-21T01:37:16;15.20;99.90
20735;DHT22;10528;52.124;5.196;2022-08-21T01:39:44;15.10;99.90
20735;DHT22;10528;52.124;5.196;2022-08-21T01:42:11;15.10;99.90
20735;DHT22;10528;52.124;5.196;2022-08-21T01:44:39;15.10;99.90
20735;DHT22;10528;52.124;5.196;2022-08-21T01:47:08;15.20;99.90
20735;DHT22;10528;52.124;5.196;2022-08-21T01:49:37;15.10;99.90
20735;DHT22;10528;52.124;5.196;2022-08-21T01:52:05;15.10;99.90
20735;DHT22;10528;52.124;5.196;2022-08-21T01:54:35;15.10;99.90
20735;DHT22;10528;52.124;5.196;2022-08-21T01:57:04;15.10;99.90
20735;DHT22;10528;52.124;5.196;2022-08-21T01:59:32;15.00;99.90
20735;DHT22;10528;52.124;5.196;2022-08-21T02:02:00;15.00;99.90
20735;DHT22;10528;52.124;5.196;2022-08-21T02:04:27;15.00;99.90
20735;DHT22;10528;52.124;5.196;2022-08-21T02:06:54;15.00;99.90
20735;DHT22;10528;52.124;5.196;2022-08-21T02:09:21;14.90;99.90
20735;DHT22;10528;52.124;5.196;2022-08-21T02:11:49;14.90;99.90
20735;DHT22;10528;52.124;5.196;2022-08-21T02:14:18;14.90;99.90
20735;DHT22;10528;52.124;5.196;2022-08-21T02:16:58;14.90;99.90
20735;DHT22;10528;52.124;5.196;2022-08-21T02:19:36;15.00;99.90
20735;DHT22;10528;52.124;5.196;2022-08-21T02:22:08;14.90;99.90
20735;DHT22;10528;52.124;5.196;2022-08-21T02:24:37;14.90;99.90
20735;DHT22;10528;52.124;5.196;2022-08-21T02:27:21;14.90;99.90
20735;DHT22;10528;52.124;5.196;2022-08-21T02:29:56;14.90;99.90
20735;DHT22;10528;52.124;5.196;2022-08-21T02:32:24;14.90;99.90
20735;DHT22;10528;52.124;5.196;2022-08-21T02:34:52;14.90;99.90
20735;DHT22;10528;52.124;5.196;2022-08-21T02:37:21;14.90;99.90
20735;DHT22;10528;52.124;5.196;2022-08-21T02:39:49;14.80;99.90
20735;DHT22;10528;52.124;5.196;2022-08-21T02:42:16;14.80;99.90
20735;DHT22;10528;52.124;5.196;2022-08-21T02:44:43;14.80;99.90
20735;DHT22;10528;52.124;5.196;2022-08-21T02:47:10;14.80;99.90
20735;DHT22;10528;52.124;5.196;2022-08-21T02:49:36;14.80;99.90
20735;DHT22;10528;52.124;5.196;2022-08-21T02:52:03;14.70;99.90
20735;DHT22;10528;52.124;5.196;2022-08-21T02:54:32;14.70;99.90
20735;DHT22;10528;52.124;5.196;2022-08-21T02:56:59;14.80;99.90
20735;DHT22;10528;52.124;5.196;2022-08-21T02:59:26;14.80;99.90
20735;DHT22;10528;52.124;5.196;2022-08-21T03:01:53;14.80;99.90
20735;DHT22;10528;52.124;5.196;2022-08-21T03:04:20;14.80;99.90
20735;DHT22;10528;52.124;5.196;2022-08-21T03:06:47;14.70;99.90
20735;DHT22;10528;52.124;5.196;2022-08-21T03:09:14;14.70;99.90
20735;DHT22;10528;52.124;5.196;2022-08-21T03:11:41;14.70;99.90
20735;DHT22;10528;52.124;5.196;2022-08-21T03:14:08;14.70;99.90
20735;DHT22;10528;52.124;5.196;2022-08-21T03:16:35;14.70;99.90
20735;DHT22;10528;52.124;5.196;2022-08-21T03:19:02;14.70;99.90
20735;DHT22;10528;52.124;5.196;2022-08-21T03:21:30;14.70;99.90
20735;DHT22;10528;52.124;5.196;2022-08-21T03:23:56;14.70;99.90
20735;DHT22;10528;52.124;5.196;2022-08-21T03:26:23;14.60;99.90
20735;DHT22;10528;52.124;5.196;2022-08-21T03:28:53;14.60;99.90
20735;DHT22;10528;52.124;5.196;2022-08-21T03:31:20;14.60;99.90
20735;DHT22;10528;52.124;5.196;2022-08-21T03:33:47;14.60;99.90
20735;DHT22;10528;52.124;5.196;2022-08-21T03:36:15;14.50;99.90
20735;DHT22;10528;52.124;5.196;2022-08-21T03:38:42;14.60;99.90
20735;DHT22;10528;52.124;5.196;2022-08-21T03:41:09;14.60;99.90
20735;DHT22;10528;52.124;5.196;2022-08-21T03:43:36;14.50;99.90
20735;DHT22;10528;52.124;5.196;2022-08-21T03:46:04;14.50;99.90
20735;DHT22;10528;52.124;5.196;2022-08-21T03:48:34;14.50;99.90
20735;DHT22;10528;52.124;5.196;2022-08-21T03:51:02;14.50;99.90
20735;DHT22;10528;52.124;5.196;2022-08-21T03:53:29;14.50;99.90
20735;DHT22;10528;52.124;5.196;2022-08-21T03:55:56;14.40;99.90
20735;DHT22;10528;52.124;5.196;2022-08-21T03:58:26;14.40;99.90
20735;DHT22;10528;52.124;5.196;2022-08-21T04:00:58;14.40;99.90
20735;DHT22;10528;52.124;5.196;2022-08-21T04:03:26;14.40;99.90
20735;DHT22;10528;52.124;5.196;2022-08-21T04:05:54;14.30;99.90
20735;DHT22;10528;52.124;5.196;2022-08-21T04:08:21;14.30;99.90
20735;DHT22;10528;52.124;5.196;2022-08-21T04:10:50;14.30;99.90
20735;DHT22;10528;52.124;5.196;2022-08-21T04:13:19;14.30;99.90
20735;DHT22;10528;52.124;5.196;2022-08-21T04:15:47;14.30;99.90
20735;DHT22;10528;52.124;5.196;2022-08-21T04:18:14;14.30;99.90
20735;DHT22;10528;52.124;5.196;2022-08-21T04:20:43;14.30;99.90
20735;DHT22;10528;52.124;5.196;2022-08-21T04:23:17;14.30;99.90
20735;DHT22;10528;52.124;5.196;2022-08-21T04:25:51;14.30;99.90
20735;DHT22;10528;52.124;5.196;2022-08-21T04:28:19;14.20;99.90
20735;DHT22;10528;52.124;5.196;2022-08-21T04:30:49;14.30;99.90
20735;DHT22;10528;52.124;5.196;2022-08-21T04:33:20;14.30;99.90
20735;DHT22;10528;52.124;5.196;2022-08-21T04:35:48;14.30;99.90
20735;DHT22;10528;52.124;5.196;2022-08-21T04:38:16;14.30;99.90
20735;DHT22;10528;52.124;5.196;2022-08-21T04:40:44;14.30;99.90
20735;DHT22;10528;52.124;5.196;2022-08-21T04:43:11;14.30;99.90
20735;DHT22;10528;52.124;5.196;2022-08-21T04:45:46;14.30;99.90
20735;DHT22;10528;52.124;5.196;2022-08-21T04:48:18;14.30;99.90
20735;DHT22;10528;52.124;5.196;2022-08-21T04:51:24;14.30;99.90
20735;DHT22;10528;52.124;5.196;2022-08-21T04:54:00;14.30;99.90
20735;DHT22;10528;52.124;5.196;2022-08-21T04:56:37;14.30;99.90
20735;DHT22;10528;52.124;5.196;2022-08-21T04:59:21;14.30;99.90
20735;DHT22;10528;52.124;5.196;2022-08-21T05:01:54;14.30;99.90
20735;DHT22;10528;52.124;5.196;2022-08-21T05:04:27;14.40;99.90
20735;DHT22;10528;52.124;5.196;2022-08-21T05:07:00;14.40;99.90
20735;DHT22;10528;52.124;5.196;2022-08-21T05:09:30;14.40;99.90
20735;DHT22;10528;52.124;5.196;2022-08-21T05:11:57;14.40;99.90
20735;DHT22;10528;52.124;5.196;2022-08-21T05:14:24;14.50;99.90
20735;DHT22;10528;52.124;5.196;2022-08-21T05:16:53;14.60;99.90
20735;DHT22;10528;52.124;5.196;2022-08-21T05:19:20;14.60;99.90
20735;DHT22;10528;52.124;5.196;2022-08-21T05:21:47;14.60;99.90
20735;DHT22;10528;52.124;5.196;2022-08-21T05:24:15;14.70;99.90
20735;DHT22;10528;52.124;5.196;2022-08-21T05:26:42;14.70;99.90
20735;DHT22;10528;52.124;5.196;2022-08-21T05:29:13;15.00;99.90
20735;DHT22;10528;52.124;5.196;2022-08-21T05:31:42;15.10;99.90
20735;DHT22;10528;52.124;5.196;2022-08-21T05:34:09;15.10;99.90
20735;DHT22;10528;52.124;5.196;2022-08-21T05:36:36;15.20;99.90
20735;DHT22;10528;52.124;5.196;2022-08-21T05:39:03;15.30;99.90
20735;DHT22;10528;52.124;5.196;2022-08-21T05:41:30;15.50;99.90
20735;DHT22;10528;52.124;5.196;2022-08-21T05:43:59;15.50;99.90
20735;DHT22;10528;52.124;5.196;2022-08-21T05:46:26;15.60;99.90
20735;DHT22;10528;52.124;5.196;2022-08-21T05:48:53;15.70;99.90
20735;DHT22;10528;52.124;5.196;2022-08-21T05:51:20;15.80;99.90
20735;DHT22;10528;52.124;5.196;2022-08-21T05:53:47;15.80;99.90
20735;DHT22;10528;52.124;5.196;2022-08-21T05:56:14;15.90;99.90
20735;DHT22;10528;52.124;5.196;2022-08-21T05:58:42;16.00;99.90
20735;DHT22;10528;52.124;5.196;2022-08-21T06:01:09;16.00;99.90
20735;DHT22;10528;52.124;5.196;2022-08-21T06:03:40;16.20;99.90
20735;DHT22;10528;52.124;5.196;2022-08-21T06:06:07;16.80;99.90
20735;DHT22;10528;52.124;5.196;2022-08-21T06:08:34;17.20;99.90
20735;DHT22;10528;52.124;5.196;2022-08-21T06:11:02;17.10;99.90
20735;DHT22;10528;52.124;5.196;2022-08-21T06:13:31;17.10;99.90
20735;DHT22;10528;52.124;5.196;2022-08-21T06:16:04;17.10;99.90
20735;DHT22;10528;52.124;5.196;2022-08-21T06:18:33;17.20;99.90
20735;DHT22;10528;52.124;5.196;2022-08-21T06:21:01;17.10;99.90
20735;DHT22;10528;52.124;5.196;2022-08-21T06:23:28;17.20;99.90
20735;DHT22;10528;52.124;5.196;2022-08-21T06:26:00;17.20;99.90
20735;DHT22;10528;52.124;5.196;2022-08-21T06:28:27;17.40;99.90
20735;DHT22;10528;52.124;5.196;2022-08-21T06:30:54;17.50;99.90
20735;DHT22;10528;52.124;5.196;2022-08-21T06:33:21;17.70;99.90
20735;DHT22;10528;52.124;5.196;2022-08-21T06:35:48;17.70;99.90
20735;DHT22;10528;52.124;5.196;2022-08-21T06:38:16;17.80;99.90
20735;DHT22;10528;52.124;5.196;2022-08-21T06:40:43;17.70;99.90
20735;DHT22;10528;52.124;5.196;2022-08-21T06:43:15;17.70;99.90
20735;DHT22;10528;52.124;5.196;2022-08-21T06:45:44;17.80;99.90
20735;DHT22;10528;52.124;5.196;2022-08-21T06:48:11;18.10;99.90
20735;DHT22;10528;52.124;5.196;2022-08-21T06:50:45;18.40;99.90
20735;DHT22;10528;52.124;5.196;2022-08-21T06:53:15;18.70;99.90
20735;DHT22;10528;52.124;5.196;2022-08-21T06:55:43;19.00;99.90
20735;DHT22;10528;52.124;5.196;2022-08-21T06:58:11;19.10;99.90
20735;DHT22;10528;52.124;5.196;2022-08-21T07:00:41;19.10;99.90
20735;DHT22;10528;52.124;5.196;2022-08-21T07:03:25;19.10;99.90
20735;DHT22;10528;52.124;5.196;2022-08-21T07:05:55;19.20;99.90
20735;DHT22;10528;52.124;5.196;2022-08-21T07:08:25;19.30;99.90
20735;DHT22;10528;52.124;5.196;2022-08-21T07:10:56;19.60;99.90
20735;DHT22;10528;52.124;5.196;2022-08-21T07:13:25;19.70;99.90
20735;DHT22;10528;52.124;5.196;2022-08-21T07:15:52;19.60;99.90
20735;DHT22;10528;52.124;5.196;2022-08-21T07:18:19;19.70;99.90
20735;DHT22;10528;52.124;5.196;2022-08-21T07:20:46;19.60;99.90
20735;DHT22;10528;52.124;5.196;2022-08-21T07:23:24;19.70;99.90
20735;DHT22;10528;52.124;5.196;2022-08-21T07:25:54;19.80;99.90
20735;DHT22;10528;52.124;5.196;2022-08-21T07:28:22;19.90;99.90
20735;DHT22;10528;52.124;5.196;2022-08-21T07:30:54;20.00;99.90
20735;DHT22;10528;52.124;5.196;2022-08-21T07:33:23;20.00;99.90
20735;DHT22;10528;52.124;5.196;2022-08-21T07:35:51;20.00;99.90
20735;DHT22;10528;52.124;5.196;2022-08-21T07:38:18;19.80;99.90
20735;DHT22;10528;52.124;5.196;2022-08-21T07:40:46;19.90;99.90
20735;DHT22;10528;52.124;5.196;2022-08-21T07:43:17;19.70;99.90
20735;DHT22;10528;52.124;5.196;2022-08-21T07:45:45;19.80;99.90
20735;DHT22;10528;52.124;5.196;2022-08-21T07:48:12;19.90;99.90
20735;DHT22;10528;52.124;5.196;2022-08-21T07:50:39;19.90;99.90
20735;DHT22;10528;52.124;5.196;2022-08-21T07:53:07;20.10;99.90
20735;DHT22;10528;52.124;5.196;2022-08-21T07:55:34;20.30;99.90
20735;DHT22;10528;52.124;5.196;2022-08-21T07:58:01;20.40;99.90
20735;DHT22;10528;52.124;5.196;2022-08-21T08:00:29;20.50;99.90
20735;DHT22;10528;52.124;5.196;2022-08-21T08:02:57;20.50;99.90
20735;DHT22;10528;52.124;5.196;2022-08-21T08:05:27;20.60;99.90
20735;DHT22;10528;52.124;5.196;2022-08-21T08:07:56;20.60;99.90
20735;DHT22;10528;52.124;5.196;2022-08-21T08:10:23;20.60;99.90
20735;DHT22;10528;52.124;5.196;2022-08-21T08:12:51;20.50;99.90
20735;DHT22;10528;52.124;5.196;2022-08-21T08:15:23;20.50;99.90
20735;DHT22;10528;52.124;5.196;2022-08-21T08:17:52;20.60;99.90
20735;DHT22;10528;52.124;5.196;2022-08-21T08:20:21;20.60;99.90
20735;DHT22;10528;52.124;5.196;2022-08-21T08:22:49;20.80;99.90
20735;DHT22;10528;52.124;5.196;2022-08-21T08:25:18;21.00;99.90
20735;DHT22;10528;52.124;5.196;2022-08-21T08:27:46;21.10;99.90
20735;DHT22;10528;52.124;5.196;2022-08-21T08:30:15;21.30;99.90
20735;DHT22;10528;52.124;5.196;2022-08-21T08:32:45;21.20;99.90
20735;DHT22;10528;52.124;5.196;2022-08-21T08:35:13;21.10;99.90
20735;DHT22;10528;52.124;5.196;2022-08-21T08:37:41;21.00;99.90
20735;DHT22;10528;52.124;5.196;2022-08-21T08:43:08;21.30;99.90
20735;DHT22;10528;52.124;5.196;2022-08-21T08:45:42;21.40;99.90
20735;DHT22;10528;52.124;5.196;2022-08-21T08:48:16;21.50;99.90
20735;DHT22;10528;52.124;5.196;2022-08-21T08:51:05;21.60;99.90
20735;DHT22;10528;52.124;5.196;2022-08-21T08:53:51;21.70;99.90
20735;DHT22;10528;52.124;5.196;2022-08-21T08:56:26;21.70;99.90
20735;DHT22;10528;52.124;5.196;2022-08-21T08:59:02;21.90;99.90
20735;DHT22;10528;52.124;5.196;2022-08-21T09:01:36;21.80;99.90
20735;DHT22;10528;52.124;5.196;2022-08-21T09:04:05;21.90;99.90
20735;DHT22;10528;52.124;5.196;2022-08-21T09:13:31;21.90;99.90
20735;DHT22;10528;52.124;5.196;2022-08-21T09:16:50;22.20;99.90
20735;DHT22;10528;52.124;5.196;2022-08-21T09:22:47;22.10;99.90
20735;DHT22;10528;52.124;5.196;2022-08-21T09:25:25;22.40;99.90
20735;DHT22;10528;52.124;5.196;2022-08-21T09:27:57;22.30;99.90
20735;DHT22;10528;52.124;5.196;2022-08-21T09:30:27;22.60;99.90
20735;DHT22;10528;52.124;5.196;2022-08-21T09:32:58;22.70;99.90
20735;DHT22;10528;52.124;5.196;2022-08-21T09:35:26;22.60;99.90
20735;DHT22;10528;52.124;5.196;2022-08-21T09:37:59;22.60;99.90
20735;DHT22;10528;52.124;5.196;2022-08-21T09:40:40;22.60;99.90
20735;DHT22;10528;52.124;5.196;2022-08-21T09:43:20;22.70;99.90
20735;DHT22;10528;52.124;5.196;2022-08-21T09:46:00;22.70;99.90
20735;DHT22;10528;52.124;5.196;2022-08-21T09:48:29;22.70;99.90
20735;DHT22;10528;52.124;5.196;2022-08-21T09:51:18;22.60;99.90
20735;DHT22;10528;52.124;5.196;2022-08-21T09:53:54;22.60;99.90
20735;DHT22;10528;52.124;5.196;2022-08-21T09:56:55;22.60;99.90
20735;DHT22;10528;52.124;5.196;2022-08-21T10:02:35;22.60;99.90
20735;DHT22;10528;52.124;5.196;2022-08-21T10:05:24;22.70;99.90
20735;DHT22;10528;52.124;5.196;2022-08-21T10:07:53;22.70;99.90
20735;DHT22;10528;52.124;5.196;2022-08-21T10:10:28;22.80;99.90
20735;DHT22;10528;52.124;5.196;2022-08-21T10:13:14;22.70;99.90
20735;DHT22;10528;52.124;5.196;2022-08-21T10:16:09;22.70;99.90
20735;DHT22;10528;52.124;5.196;2022-08-21T10:22:11;23.20;99.90
20735;DHT22;10528;52.124;5.196;2022-08-21T10:30:32;23.00;99.90
20735;DHT22;10528;52.124;5.196;2022-08-21T10:36:38;22.90;99.90
20735;DHT22;10528;52.124;5.196;2022-08-21T10:39:33;22.90;99.90
20735;DHT22;10528;52.124;5.196;2022-08-21T10:42:47;23.00;99.90
20735;DHT22;10528;52.124;5.196;2022-08-21T10:48:54;23.30;99.90
20735;DHT22;10528;52.124;5.196;2022-08-21T10:52:41;23.50;99.90
20735;DHT22;10528;52.124;5.196;2022-08-21T10:55:04;23.70;99.90
20735;DHT22;10528;52.124;5.196;2022-08-21T10:57:50;23.70;99.90
20735;DHT22;10528;52.124;5.196;2022-08-21T11:00:27;23.70;99.90
20735;DHT22;10528;52.124;5.196;2022-08-21T11:03:13;23.60;99.90
20735;DHT22;10528;52.124;5.196;2022-08-21T11:05:55;23.40;99.90
20735;DHT22;10528;52.124;5.196;2022-08-21T11:11:20;23.60;99.90
20735;DHT22;10528;52.124;5.196;2022-08-21T11:17:20;24.00;99.90
20735;DHT22;10528;52.124;5.196;2022-08-21T11:20:02;24.00;99.90
20735;DHT22;10528;52.124;5.196;2022-08-21T11:22:49;23.90;99.90
20735;DHT22;10528;52.124;5.196;2022-08-21T11:25:32;23.70;99.90
20735;DHT22;10528;52.124;5.196;2022-08-21T11:34:24;23.40;99.90
20735;DHT22;10528;52.124;5.196;2022-08-21T11:37:23;23.60;99.90
20735;DHT22;10528;52.124;5.196;2022-08-21T11:43:48;23.60;99.90
20735;DHT22;10528;52.124;5.196;2022-08-21T11:52:35;23.80;99.90
20735;DHT22;10528;52.124;5.196;2022-08-21T11:55:18;24.00;99.90
20735;DHT22;10528;52.124;5.196;2022-08-21T11:58:10;24.00;99.90
20735;DHT22;10528;52.124;5.196;2022-08-21T12:01:12;24.00;99.90
20735;DHT22;10528;52.124;5.196;2022-08-21T12:04:27;24.00;99.90
20735;DHT22;10528;52.124;5.196;2022-08-21T12:07:10;24.20;99.90
20735;DHT22;10528;52.124;5.196;2022-08-21T12:09:53;24.20;99.90
20735;DHT22;10528;52.124;5.196;2022-08-21T12:12:31;24.30;99.90
20735;DHT22;10528;52.124;5.196;2022-08-21T12:18:04;24.10;99.90
20735;DHT22;10528;52.124;5.196;2022-08-21T12:26:37;23.90;99.90
20735;DHT22;10528;52.124;5.196;2022-08-21T12:29:21;24.00;99.90
20735;DHT22;10528;52.124;5.196;2022-08-21T12:32:03;24.20;99.90
20735;DHT22;10528;52.124;5.196;2022-08-21T12:34:52;24.30;99.90
20735;DHT22;10528;52.124;5.196;2022-08-21T12:37:41;24.20;99.90
20735;DHT22;10528;52.124;5.196;2022-08-21T12:40:22;24.00;99.90
20735;DHT22;10528;52.124;5.196;2022-08-21T12:42:55;23.90;99.90
20735;DHT22;10528;52.124;5.196;2022-08-21T12:45:42;24.00;99.90
20735;DHT22;10528;52.124;5.196;2022-08-21T12:48:17;24.20;99.90
20735;DHT22;10528;52.124;5.196;2022-08-21T12:51:10;24.30;99.90
20735;DHT22;10528;52.124;5.196;2022-08-21T12:53:53;24.40;99.90
20735;DHT22;10528;52.124;5.196;2022-08-21T12:56:28;24.30;99.90
20735;DHT22;10528;52.124;5.196;2022-08-21T12:59:02;24.20;99.90
20735;DHT22;10528;52.124;5.196;2022-08-21T13:01:35;24.30;99.90
20735;DHT22;10528;52.124;5.196;2022-08-21T13:04:13;24.20;99.90
20735;DHT22;10528;52.124;5.196;2022-08-21T13:06:50;24.00;99.90
20735;DHT22;10528;52.124;5.196;2022-08-21T13:09:25;24.00;99.90
20735;DHT22;10528;52.124;5.196;2022-08-21T13:11:54;24.00;99.90
20735;DHT22;10528;52.124;5.196;2022-08-21T13:14:39;24.00;99.90
20735;DHT22;10528;52.124;5.196;2022-08-21T13:17:12;23.90;99.90
20735;DHT22;10528;52.124;5.196;2022-08-21T13:20:04;24.00;99.90
20735;DHT22;10528;52.124;5.196;2022-08-21T13:22:41;24.20;99.90
20735;DHT22;10528;52.124;5.196;2022-08-21T13:25:12;24.20;99.90
20735;DHT22;10528;52.124;5.196;2022-08-21T13:27:43;24.10;99.90
20735;DHT22;10528;52.124;5.196;2022-08-21T13:30:19;24.00;99.90
20735;DHT22;10528;52.124;5.196;2022-08-21T13:32:52;24.00;99.90
20735;DHT22;10528;52.124;5.196;2022-08-21T13:35:31;24.20;99.90
20735;DHT22;10528;52.124;5.196;2022-08-21T13:38:03;24.20;99.90
20735;DHT22;10528;52.124;5.196;2022-08-21T13:40:40;24.10;99.90
20735;DHT22;10528;52.124;5.196;2022-08-21T13:43:18;24.20;99.90
20735;DHT22;10528;52.124;5.196;2022-08-21T13:45:51;24.20;99.90
20735;DHT22;10528;52.124;5.196;2022-08-21T13:48:20;24.10;99.90
20735;DHT22;10528;52.124;5.196;2022-08-21T13:50:50;24.10;99.90
20735;DHT22;10528;52.124;5.196;2022-08-21T13:53:22;24.00;99.90
20735;DHT22;10528;52.124;5.196;2022-08-21T13:55:52;24.10;99.90
20735;DHT22;10528;52.124;5.196;2022-08-21T13:58:32;24.10;99.90
20735;DHT22;10528;52.124;5.196;2022-08-21T14:04:04;24.00;99.90
20735;DHT22;10528;52.124;5.196;2022-08-21T14:06:38;24.10;99.90
20735;DHT22;10528;52.124;5.196;2022-08-21T14:09:23;24.00;99.90
20735;DHT22;10528;52.124;5.196;2022-08-21T14:11:56;24.00;99.90
20735;DHT22;10528;52.124;5.196;2022-08-21T14:14:28;23.90;99.90
20735;DHT22;10528;52.124;5.196;2022-08-21T14:17:04;24.00;99.90
20735;DHT22;10528;52.124;5.196;2022-08-21T14:19:59;24.00;99.90
20735;DHT22;10528;52.124;5.196;2022-08-21T14:22:47;24.00;99.90
20735;DHT22;10528;52.124;5.196;2022-08-21T14:28:02;24.00;99.90
20735;DHT22;10528;52.124;5.196;2022-08-21T14:30:41;24.00;99.90
20735;DHT22;10528;52.124;5.196;2022-08-21T14:33:13;24.00;99.90
20735;DHT22;10528;52.124;5.196;2022-08-21T14:35:46;23.90;99.90
20735;DHT22;10528;52.124;5.196;2022-08-21T14:38:15;23.90;99.90
20735;DHT22;10528;52.124;5.196;2022-08-21T14:40:49;23.80;99.90
20735;DHT22;10528;52.124;5.196;2022-08-21T14:43:19;23.70;99.90
20735;DHT22;10528;52.124;5.196;2022-08-21T14:45:47;23.70;99.90
20735;DHT22;10528;52.124;5.196;2022-08-21T14:48:14;23.70;99.90
20735;DHT22;10528;52.124;5.196;2022-08-21T14:50:41;23.80;99.90
20735;DHT22;10528;52.124;5.196;2022-08-21T14:53:08;23.80;99.90
20735;DHT22;10528;52.124;5.196;2022-08-21T14:55:37;23.90;99.90
20735;DHT22;10528;52.124;5.196;2022-08-21T14:58:25;23.90;99.90
20735;DHT22;10528;52.124;5.196;2022-08-21T15:00:53;23.80;99.90
20735;DHT22;10528;52.124;5.196;2022-08-21T15:03:21;23.90;99.90
20735;DHT22;10528;52.124;5.196;2022-08-21T15:05:50;23.90;99.90
20735;DHT22;10528;52.124;5.196;2022-08-21T15:08:18;23.90;99.90
20735;DHT22;10528;52.124;5.196;2022-08-21T15:10:45;23.80;99.90
20735;DHT22;10528;52.124;5.196;2022-08-21T15:13:33;23.70;99.90
20735;DHT22;10528;52.124;5.196;2022-08-21T15:16:00;23.70;99.90
20735;DHT22;10528;52.124;5.196;2022-08-21T15:18:30;23.70;99.90
20735;DHT22;10528;52.124;5.196;2022-08-21T15:20:57;23.70;99.90
20735;DHT22;10528;52.124;5.196;2022-08-21T15:23:24;23.70;99.90
20735;DHT22;10528;52.124;5.196;2022-08-21T15:25:52;23.70;99.90
20735;DHT22;10528;52.124;5.196;2022-08-21T15:28:20;23.60;99.90
20735;DHT22;10528;52.124;5.196;2022-08-21T15:30:48;23.50;99.90
20735;DHT22;10528;52.124;5.196;2022-08-21T15:33:17;23.50;99.90
20735;DHT22;10528;52.124;5.196;2022-08-21T15:35:45;23.40;99.90
20735;DHT22;10528;52.124;5.196;2022-08-21T15:38:14;23.50;99.90
20735;DHT22;10528;52.124;5.196;2022-08-21T15:40:41;23.40;99.90
20735;DHT22;10528;52.124;5.196;2022-08-21T15:43:35;23.40;99.90
20735;DHT22;10528;52.124;5.196;2022-08-21T15:46:10;23.30;99.90
20735;DHT22;10528;52.124;5.196;2022-08-21T15:48:39;23.50;99.90
20735;DHT22;10528;52.124;5.196;2022-08-21T15:51:07;23.60;99.90
20735;DHT22;10528;52.124;5.196;2022-08-21T15:53:35;23.60;99.90
20735;DHT22;10528;52.124;5.196;2022-08-21T15:56:06;23.50;99.90
20735;DHT22;10528;52.124;5.196;2022-08-21T15:58:50;23.40;99.90
20735;DHT22;10528;52.124;5.196;2022-08-21T16:01:24;23.50;99.90
20735;DHT22;10528;52.124;5.196;2022-08-21T16:03:52;23.50;99.90
20735;DHT22;10528;52.124;5.196;2022-08-21T16:06:20;23.30;99.90
20735;DHT22;10528;52.124;5.196;2022-08-21T16:09:07;23.30;99.90
20735;DHT22;10528;52.124;5.196;2022-08-21T16:11:34;23.30;99.90
20735;DHT22;10528;52.124;5.196;2022-08-21T16:14:01;23.20;99.90
20735;DHT22;10528;52.124;5.196;2022-08-21T16:16:28;23.40;99.90
20735;DHT22;10528;52.124;5.196;2022-08-21T16:18:57;23.30;99.90
20735;DHT22;10528;52.124;5.196;2022-08-21T16:21:24;23.40;99.90
20735;DHT22;10528;52.124;5.196;2022-08-21T16:23:51;23.40;99.90
20735;DHT22;10528;52.124;5.196;2022-08-21T16:26:19;23.30;99.90
20735;DHT22;10528;52.124;5.196;2022-08-21T16:28:48;23.30;99.90
20735;DHT22;10528;52.124;5.196;2022-08-21T16:31:21;23.30;99.90
20735;DHT22;10528;52.124;5.196;2022-08-21T16:33:52;23.20;99.90
20735;DHT22;10528;52.124;5.196;2022-08-21T16:36:24;23.30;99.90
20735;DHT22;10528;52.124;5.196;2022-08-21T16:38:56;23.20;99.90
20735;DHT22;10528;52.124;5.196;2022-08-21T16:41:26;23.10;99.90
20735;DHT22;10528;52.124;5.196;2022-08-21T16:43:56;23.20;99.90
20735;DHT22;10528;52.124;5.196;2022-08-21T16:46:24;23.20;99.90
20735;DHT22;10528;52.124;5.196;2022-08-21T16:48:51;23.10;99.90
20735;DHT22;10528;52.124;5.196;2022-08-21T16:51:18;23.20;99.90
20735;DHT22;10528;52.124;5.196;2022-08-21T16:53:45;23.20;99.90
20735;DHT22;10528;52.124;5.196;2022-08-21T16:56:13;23.10;99.90
20735;DHT22;10528;52.124;5.196;2022-08-21T16:58:44;23.20;99.90
20735;DHT22;10528;52.124;5.196;2022-08-21T17:01:16;23.10;99.90
20735;DHT22;10528;52.124;5.196;2022-08-21T17:03:48;23.10;99.90
20735;DHT22;10528;52.124;5.196;2022-08-21T17:06:18;23.10;99.90
20735;DHT22;10528;52.124;5.196;2022-08-21T17:08:47;23.10;99.90
20735;DHT22;10528;52.124;5.196;2022-08-21T17:14:12;22.80;99.90
20735;DHT22;10528;52.124;5.196;2022-08-21T17:16:46;23.00;99.90
20735;DHT22;10528;52.124;5.196;2022-08-21T17:19:17;22.90;99.90